CheckWX is a tool to help pilots better visualize weather data.  It is not intended as a substitute for an official pre-flight weather briefing.

07:13:25 UTC

EFKS TAF
Kuusamo Airport
Kuusamo, Finland
TAF EFKS 190535Z 1906/1913 27010KT CAVOK

Jun-19@
06:00 UTC

Jun-19 @ 06:00 UTC

Jun-19@
13:00 UTC

Jun-19 @ 13:00 UTC

TAF EFKS 190535Z 1906/1913 27010KT CAVOK
Wind
  • 270° at 10 KTS
Conditions
No significant weather
Cloud Levels
  • No significant clouds